Flight Track Log - Related Links

Times and Time Zones

All times are in EDT time to prevent confusion due to time zone crossing. See the AWI3574 flight status page for this flight to view local times or setup timezone preferences in your user account.

Time Position Orientation Groundspeed Altitude Reporting Facility
EDT Latitude Longitude Course Direction KTS MPH feet Rate Location/Type
Mon 06:58:18 AM 32.9282 -80.0284 354° North  Level FlightAware Approximate
Mon 06:59:18 AM 33.0263 -79.9868 233° Southwest  Level FlightAware Approximate
Mon 07:00:34 AM 32.9944 -80.0369 20° North 200 230 3,400  Level Jacksonville Center
Mon 07:01:34 AM 33.0606 -80.0075 19° North 221 254 5,300 2,100 Climbing Jacksonville Center
Mon 07:02:34 AM 33.1247 -79.9808 19° North 251 289 7,600 2,000 Climbing Jacksonville Center
Mon 07:03:34 AM 33.2031 -79.9483 14° North 271 312 9,300 1,750 Climbing Jacksonville Center
Mon 07:04:34 AM 33.2797 -79.9258 14° North 283 326 11,100 1,800 Climbing Jacksonville Center
Mon 07:05:34 AM 33.3647 -79.9008 13° North 294 338 12,900 1,800 Climbing Jacksonville Center
Mon 07:06:34 AM 33.4581 -79.8753 13° North 318 366 14,700 1,800 Climbing Jacksonville Center
Mon 07:07:34 AM 33.5494 -79.8497 14° North 329 379 16,500 1,600 Climbing Jacksonville Center
Mon 07:08:34 AM 33.6425 -79.8214 13° North 335 386 17,900 1,150 Climbing Jacksonville Center
Mon 07:09:34 AM 33.7419 -79.7931 12° North 347 399 18,800 1,150 Climbing Jacksonville Center
Mon 07:10:34 AM 33.8436 -79.7669 13° North 358 412 20,200 1,350 Climbing Jacksonville Center
Mon 07:11:34 AM 33.9431 -79.7383 13° North 358 412 21,500 1,100 Climbing Jacksonville Center
Mon 07:12:34 AM 34.0444 -79.7097 11° North 363 418 22,400 1,059 Climbing Jacksonville Center
Mon 07:14:58 AM 34.2989 -79.6519 North 366 421 25,100 966 Climbing Washington Center
Mon 07:15:59 AM 34.3953 -79.6439 North 376 433 25,700 655 Climbing Washington Center
Mon 07:16:57 AM 34.5039 -79.6392 North 381 438 26,400 650 Climbing Washington Center
Mon 07:17:59 AM 34.6150 -79.6222 33° Northeast 396 456 27,000 694 Climbing Washington Center
Mon 07:18:58 AM 34.7114 -79.5458 33° Northeast 398 458 27,800 706 Climbing Washington Center
Mon 07:19:58 AM 34.8058 -79.4697 35° Northeast 406 467 28,400 545 Climbing Washington Center
Mon 07:20:59 AM 34.9086 -79.3833 34° Northeast 412 474 28,900 545 Climbing Washington Center
Mon 07:21:59 AM 35.0072 -79.3017 34° Northeast 412 474 29,500 462 Climbing Washington Center
Mon 07:22:56 AM 35.1036 -79.2225 35° Northeast 412 474 29,800 508 Climbing Washington Center
Mon 07:23:57 AM 35.2000 -79.1403 34° Northeast 412 474 30,500 590 Climbing Washington Center
Mon 07:24:58 AM 35.2961 -79.0606 34° Northeast 419 482 31,000 252 Climbing Washington Center
Mon 07:25:56 AM 35.3967 -78.9783 35° Northeast 423 487 31,000  Level Washington Center
Mon 07:26:57 AM 35.4950 -78.8933 33° Northeast 428 493 31,000  Level Washington Center
Mon 07:27:58 AM 35.5825 -78.8228 35° Northeast 428 493 31,000  Level Washington Center
Mon 07:28:58 AM 35.6806 -78.7397 36° Northeast 428 493 31,000  Level Washington Center
Mon 07:29:59 AM 35.7747 -78.6564 36° Northeast 423 487 31,000  Level Washington Center
Mon 07:30:59 AM 35.8750 -78.5681 35° Northeast 416 479 31,000  Level Washington Center
Mon 07:31:59 AM 35.9667 -78.4894 35° Northeast 411 473 31,000  Level Washington Center
Mon 07:32:59 AM 36.0603 -78.4081 35° Northeast 411 473 31,000  Level Washington Center
Mon 07:33:57 AM 36.1478 -78.3314 35° Northeast 406 467 31,000  Level Washington Center
Mon 07:34:58 AM 36.2392 -78.2522 36° Northeast 399 459 31,000  Level Washington Center
Mon 07:35:59 AM 36.3328 -78.1678 36° Northeast 404 465 31,000  Level Washington Center
Mon 07:36:57 AM 36.4244 -78.0856 35° Northeast 404 465 31,000  Level Washington Center
Mon 07:37:59 AM 36.5200 -78.0008 34° Northeast 404 465 31,000  Level Washington Center
Mon 07:38:56 AM 36.6197 -77.9158 36° Northeast 415 478 31,000  Level Washington Center
Mon 07:39:57 AM 36.7108 -77.8331 35° Northeast 433 498 31,000  Level Washington Center
Mon 07:40:57 AM 36.8086 -77.7478 36° Northeast 433 498 31,000  Level Washington Center
Mon 07:41:58 AM 36.9103 -77.6569 35° Northeast 433 498 31,000  Level Washington Center
Mon 07:42:59 AM 37.0119 -77.5686 36° Northeast 433 498 31,000  Level Washington Center
Mon 07:43:57 AM 37.1114 -77.4775 36° Northeast 433 498 31,000  Level Washington Center
Mon 07:44:58 AM 37.2128 -77.3861 35° Northeast 433 498 31,000  Level Washington Center
Mon 07:45:58 AM 37.3144 -77.2969 35° Northeast 433 498 31,000  Level Washington Center
Mon 07:46:57 AM 37.4178 -77.2053 36° Northeast 438 504 31,000  Level Washington Center
Mon 07:47:57 AM 37.5297 -77.1028 36° Northeast 448 516 31,000  Level Washington Center
Mon 07:48:58 AM 37.6331 -77.0078 37° Northeast 448 516 31,000  Level Washington Center
Mon 07:49:59 AM 37.7281 -76.9178 36° Northeast 443 510 31,000  Level Washington Center
Mon 07:50:57 AM 37.8292 -76.8247 36° Northeast 443 510 31,000  Level Washington Center
Mon 07:51:57 AM 37.9281 -76.7344 37° Northeast 443 510 31,000  Level Washington Center
Mon 07:52:57 AM 38.0289 -76.6383 35° Northeast 443 510 31,000  Level Washington Center
Mon 07:53:58 AM 38.1297 -76.5472 36° Northeast 443 510 31,000 -49 Level Washington Center
Mon 07:54:59 AM 38.2283 -76.4561 35° Northeast 443 510 30,900 -397 Descending Washington Center
Mon 07:55:59 AM 38.3333 -76.3619 36° Northeast 443 510 30,200 -769 Descending Washington Center
Mon 07:56:56 AM 38.4381 -76.2650 36° Northeast 454 522 29,400 -661 Descending Washington Center
Mon 07:57:57 AM 38.5450 -76.1650 36° Northeast 465 535 28,900 -541 Descending Washington Center
Mon 07:58:58 AM 38.6497 -76.0675 36° Northeast 465 535 28,300 -545 Descending Washington Center
Mon 07:59:58 AM 38.7542 -75.9697 35° Northeast 465 535 27,800 -500 Descending Washington Center
Mon 08:00:58 AM 38.8589 -75.8742 36° Northeast 465 535 27,300 -397 Descending Washington Center
Mon 08:01:59 AM 38.9631 -75.7758 37° Northeast 460 529 27,000 -149 Descending Washington Center
Mon 08:02:59 AM 39.0656 -75.6772 36° Northeast 460 529 27,000  Level Washington Center
Mon 08:03:58 AM 39.1675 -75.5808 35° Northeast 460 529 27,000 -908 Level Washington Center
Mon 08:04:58 AM 39.2717 -75.4869 36° Northeast 454 522 25,200 -1,785 Descending Washington Center
Mon 08:05:59 AM 39.3675 -75.3983 34° Northeast 443 510 23,400 -1,765 Descending Washington Center
Mon 08:06:57 AM 39.4653 -75.3119 35° Northeast 430 495 21,700 -1,210 Descending Washington Center
Mon 08:07:58 AM 39.5608 -75.2256 36° Northeast 420 483 21,000 -1,131 Descending Washington Center
Mon 08:08:59 AM 39.6544 -75.1386 34° Northeast 415 478 19,400 -1,488 Descending Washington Center
Mon 08:09:59 AM 39.7478 -75.0572 35° Northeast 410 472 18,000 -1,627 Descending Washington Center
Mon 08:10:57 AM 39.8308 -74.9808 42° Northeast 400 460 16,200 -1,975 Descending Washington Center
Mon 08:12:40 AM 39.9833 -74.8000 43° Northeast 397 457 12,700 -1,951 Descending New York TRACON
Mon 08:13:40 AM 40.0667 -74.7000 49° Northeast 379 436 10,900 -1,350 Descending New York TRACON
Mon 08:14:40 AM 40.1333 -74.6000 49° Northeast 364 419 10,000 -450 Descending New York TRACON
Mon 08:15:40 AM 40.2000 -74.5000 45° Northeast 362 417 10,000  Level New York TRACON
Mon 08:16:35 AM 40.2500 -74.4333 42° Northeast 358 412 10,000  Level New York TRACON
Mon 08:17:40 AM 40.3333 -74.3333 44° Northeast 355 409 10,000 -384 Level New York TRACON
Mon 08:18:40 AM 40.4000 -74.2500 45° Northeast 287 330 9,200 -1,368 Descending New York TRACON
Mon 08:19:34 AM 40.4500 -74.1833 45° Northeast 284 327 7,400 -1,431 Descending New York TRACON
Mon 08:20:29 AM 40.5000 -74.1167 30° Northeast 289 333 6,600 -1,357 Descending New York TRACON
Mon 08:21:29 AM 40.5667 -74.0667 37° Northeast 278 320 4,800 -1,300 Descending New York TRACON
Mon 08:22:29 AM 40.6167 -74.0167 37° Northeast 275 316 4,000 -350 Descending New York TRACON
Mon 08:23:29 AM 40.6833 -73.9500 52° Northeast 271 312 4,100  Climbing New York TRACON
Mon 08:24:29 AM 40.7333 -73.8667 62° Northeast 270 311 4,000 -50 Descending New York TRACON
Mon 08:25:29 AM 40.7667 -73.7833 52° Northeast 269 310 4,000  Level New York TRACON
Mon 08:26:35 AM 40.8167 -73.7000 346° North 267 307 4,000 -750 Level New York TRACON
Mon 08:27:29 AM 40.8667 -73.7167 270° West 257 296 2,500 -1,050 Descending New York TRACON
Mon 08:28:35 AM 40.8667 -73.8000 217° Southwest 213 245 1,900 -600 Descending New York TRACON
Mon 08:29:29 AM 40.8333 -73.8333 217° Southwest 149 171 1,300 -667 Descending New York TRACON

Login

Don't have an account? Register now (free) for customized features, flight alerts, and more!